createdAt,value
2022-10-14T00:00:53.058Z,99.90
2022-10-14T00:03:20.111Z,99.90
2022-10-14T00:05:48.625Z,99.90
2022-10-14T00:08:15.789Z,99.90
2022-10-14T00:10:42.999Z,99.90
2022-10-14T00:13:10.027Z,99.90
2022-10-14T00:15:40.092Z,99.90
2022-10-14T00:18:08.891Z,99.90
2022-10-14T00:20:36.499Z,99.90
2022-10-14T00:23:03.976Z,99.90
2022-10-14T00:25:31.306Z,99.90
2022-10-14T00:27:58.482Z,99.90
2022-10-14T00:30:25.484Z,99.90
2022-10-14T00:32:52.704Z,99.90
2022-10-14T00:35:20.067Z,99.90
2022-10-14T00:37:47.186Z,99.90
2022-10-14T00:40:14.393Z,99.90
2022-10-14T00:42:42.040Z,99.90
2022-10-14T00:45:20.510Z,99.90
2022-10-14T00:47:50.494Z,99.90
2022-10-14T00:50:18.374Z,99.90
2022-10-14T00:52:46.480Z,99.90
2022-10-14T00:55:18.178Z,99.90
2022-10-14T00:57:45.823Z,99.90
2022-10-14T01:00:16.452Z,99.90
2022-10-14T01:02:43.577Z,99.90
2022-10-14T01:05:13.405Z,99.90
2022-10-14T01:08:20.335Z,99.90
2022-10-14T01:10:59.745Z,99.90
2022-10-14T01:13:33.972Z,99.90
2022-10-14T01:16:15.398Z,99.90
2022-10-14T01:18:43.619Z,99.90
2022-10-14T01:21:25.226Z,99.90
2022-10-14T01:24:02.871Z,99.90
2022-10-14T01:26:53.257Z,99.90
2022-10-14T01:29:48.567Z,99.90
2022-10-14T01:32:24.557Z,99.90
2022-10-14T01:35:01.750Z,99.90
2022-10-14T01:37:32.998Z,99.90
2022-10-14T01:40:05.415Z,99.90
2022-10-14T01:42:37.296Z,99.90
2022-10-14T01:45:12.223Z,99.90
2022-10-14T01:47:41.557Z,99.90
2022-10-14T01:50:14.719Z,99.90
2022-10-14T01:52:48.585Z,99.90
2022-10-14T01:55:22.443Z,99.90
2022-10-14T01:57:52.446Z,99.90
2022-10-14T02:00:19.829Z,99.90
2022-10-14T02:02:46.959Z,99.90
2022-10-14T02:05:22.579Z,99.90
2022-10-14T02:07:57.493Z,99.90
2022-10-14T02:10:39.765Z,99.90
2022-10-14T02:13:42.909Z,99.90
2022-10-14T02:16:15.015Z,99.90
2022-10-14T02:18:54.227Z,99.90
2022-10-14T02:21:27.553Z,99.90
2022-10-14T02:24:08.187Z,99.90
2022-10-14T02:26:38.871Z,99.90
2022-10-14T02:29:06.419Z,99.90
2022-10-14T02:31:38.005Z,99.90
2022-10-14T02:34:09.734Z,99.90
2022-10-14T02:36:38.777Z,99.90
2022-10-14T02:39:09.927Z,99.90
2022-10-14T02:41:39.869Z,99.90
2022-10-14T02:44:08.311Z,99.90
2022-10-14T02:46:35.928Z,99.90
2022-10-14T02:49:03.157Z,99.90
2022-10-14T02:51:30.247Z,99.90
2022-10-14T02:53:57.957Z,99.90
2022-10-14T02:56:27.035Z,99.90
2022-10-14T02:58:54.178Z,99.90
2022-10-14T03:01:23.099Z,99.90
2022-10-14T03:03:50.287Z,99.90
2022-10-14T03:06:17.932Z,99.90
2022-10-14T03:08:47.310Z,99.90
2022-10-14T03:11:14.363Z,99.90
2022-10-14T03:13:41.570Z,99.90
2022-10-14T03:16:09.042Z,99.90
2022-10-14T03:18:40.931Z,99.90
2022-10-14T03:21:18.644Z,99.90
2022-10-14T03:23:45.888Z,99.90
2022-10-14T03:26:14.246Z,99.90
2022-10-14T03:28:46.393Z,99.90
2022-10-14T03:31:22.246Z,99.90
2022-10-14T03:34:04.087Z,99.90
2022-10-14T03:36:32.071Z,99.90
2022-10-14T03:38:59.215Z,99.90
2022-10-14T03:41:36.260Z,99.90
2022-10-14T03:44:05.180Z,99.90
2022-10-14T03:46:34.200Z,99.90
2022-10-14T03:49:02.129Z,99.90
2022-10-14T03:51:29.671Z,99.90
2022-10-14T03:54:07.616Z,99.90
2022-10-14T03:56:35.867Z,99.90
2022-10-14T03:59:04.556Z,99.90
2022-10-14T04:01:32.650Z,99.90
2022-10-14T04:04:19.690Z,99.90
2022-10-14T04:06:47.804Z,99.90
2022-10-14T04:09:17.706Z,99.90
2022-10-14T04:11:44.925Z,99.90
2022-10-14T04:14:27.396Z,99.90
2022-10-14T04:16:56.294Z,99.90
2022-10-14T04:19:23.378Z,99.90
2022-10-14T04:21:50.544Z,99.90
2022-10-14T04:24:21.142Z,99.90
2022-10-14T04:26:54.458Z,99.90
2022-10-14T04:29:30.929Z,99.90
2022-10-14T04:32:04.468Z,99.90
2022-10-14T04:34:31.827Z,99.90
2022-10-14T04:36:58.860Z,99.90
2022-10-14T04:39:43.236Z,99.90
2022-10-14T04:42:11.117Z,99.90
2022-10-14T04:44:38.713Z,99.90
2022-10-14T04:47:06.635Z,99.90
2022-10-14T04:49:33.810Z,99.90
2022-10-14T04:52:08.630Z,99.90
2022-10-14T04:54:41.612Z,99.90
2022-10-14T04:57:10.115Z,99.90
2022-10-14T04:59:38.572Z,99.90
2022-10-14T05:02:15.535Z,99.90
2022-10-14T05:04:49.989Z,99.90
2022-10-14T05:07:17.772Z,99.90
2022-10-14T05:09:51.183Z,99.90
2022-10-14T05:12:26.107Z,99.90
2022-10-14T05:14:58.912Z,99.90
2022-10-14T05:17:34.446Z,99.90
2022-10-14T05:20:01.826Z,99.90
2022-10-14T05:22:29.872Z,99.90
2022-10-14T05:24:57.196Z,99.90
2022-10-14T05:27:25.169Z,99.90
2022-10-14T05:29:54.090Z,99.90
2022-10-14T05:32:22.651Z,99.90
2022-10-14T05:34:53.045Z,99.90
2022-10-14T05:37:28.724Z,99.90
2022-10-14T05:39:56.379Z,99.90
2022-10-14T05:42:26.463Z,99.90
2022-10-14T05:44:56.455Z,99.90
2022-10-14T05:47:24.766Z,99.90
2022-10-14T05:49:57.574Z,99.90
2022-10-14T05:52:25.065Z,99.90
2022-10-14T05:54:53.639Z,99.90
2022-10-14T05:57:24.726Z,99.90
2022-10-14T05:59:51.904Z,99.90
2022-10-14T06:02:19.390Z,99.90
2022-10-14T06:04:47.500Z,99.90
2022-10-14T06:07:15.163Z,99.90
2022-10-14T06:09:42.620Z,99.90
2022-10-14T06:12:10.157Z,99.90
2022-10-14T06:14:38.889Z,99.90
2022-10-14T06:17:07.017Z,99.90
2022-10-14T06:19:34.146Z,99.90
2022-10-14T06:22:01.414Z,99.90
2022-10-14T06:24:28.485Z,99.90
2022-10-14T06:26:55.684Z,99.90
2022-10-14T06:29:26.347Z,99.90
2022-10-14T06:31:53.457Z,99.90
2022-10-14T06:34:23.202Z,99.90
2022-10-14T06:36:50.537Z,99.90
2022-10-14T06:39:17.838Z,99.90
2022-10-14T06:41:44.951Z,99.90
2022-10-14T06:44:19.721Z,99.90
2022-10-14T06:46:47.329Z,99.90
2022-10-14T06:49:14.768Z,99.90
2022-10-14T06:51:42.023Z,99.90
2022-10-14T06:54:09.303Z,99.90
2022-10-14T06:56:36.420Z,99.90
2022-10-14T06:59:05.813Z,99.90
2022-10-14T07:01:33.114Z,99.90
2022-10-14T07:04:00.120Z,99.90
2022-10-14T07:06:27.257Z,99.90
2022-10-14T07:08:54.343Z,99.90
2022-10-14T07:11:21.433Z,99.90
2022-10-14T07:13:48.483Z,99.90
2022-10-14T07:16:15.593Z,99.90
2022-10-14T07:18:42.698Z,99.90
2022-10-14T07:21:09.955Z,99.90
2022-10-14T07:23:37.014Z,99.90
2022-10-14T07:26:04.240Z,99.90
2022-10-14T07:28:31.553Z,99.90
2022-10-14T07:31:01.544Z,99.90
2022-10-14T07:33:29.134Z,99.90
2022-10-14T07:36:00.568Z,99.90
2022-10-14T07:38:27.618Z,99.90
2022-10-14T07:40:58.763Z,99.90
2022-10-14T07:43:28.068Z,99.90
2022-10-14T07:46:01.018Z,99.90
2022-10-14T07:48:38.733Z,99.90
2022-10-14T07:51:16.851Z,99.90
2022-10-14T07:53:43.965Z,99.90
2022-10-14T07:56:10.999Z,99.90
2022-10-14T07:58:42.218Z,99.90
2022-10-14T08:01:11.500Z,99.90
2022-10-14T08:03:38.534Z,99.90
2022-10-14T08:06:06.096Z,99.90
2022-10-14T08:08:33.713Z,99.90
2022-10-14T08:11:04.663Z,99.90
2022-10-14T08:13:33.212Z,99.90
2022-10-14T08:16:01.365Z,99.90
2022-10-14T08:18:30.055Z,99.90
2022-10-14T08:20:57.407Z,99.90
2022-10-14T08:23:24.668Z,99.90
2022-10-14T08:25:51.899Z,99.90
2022-10-14T08:28:19.300Z,99.90
2022-10-14T08:30:48.210Z,99.90
2022-10-14T08:33:15.257Z,99.90
2022-10-14T08:35:42.491Z,99.90
2022-10-14T08:38:09.740Z,99.90
2022-10-14T08:40:56.920Z,99.90
2022-10-14T08:43:32.807Z,99.90
2022-10-14T08:46:12.510Z,99.90
2022-10-14T08:48:40.113Z,99.90
2022-10-14T08:51:13.417Z,99.90
2022-10-14T08:53:46.295Z,99.90
2022-10-14T08:56:14.725Z,99.90
2022-10-14T08:58:47.923Z,99.90
2022-10-14T09:01:36.605Z,99.90
2022-10-14T09:04:06.567Z,99.90
2022-10-14T09:06:36.325Z,99.90
2022-10-14T09:09:12.955Z,99.90
2022-10-14T09:11:43.688Z,99.90
2022-10-14T09:14:18.627Z,99.90
2022-10-14T09:16:51.848Z,99.90
2022-10-14T09:19:32.768Z,99.90
2022-10-14T09:22:01.555Z,99.90
2022-10-14T09:24:35.991Z,99.90
2022-10-14T09:27:07.313Z,99.90
2022-10-14T09:30:00.639Z,99.90
2022-10-14T09:32:47.446Z,99.90
2022-10-14T09:35:17.155Z,99.90
2022-10-14T09:37:44.445Z,99.90
2022-10-14T09:40:25.330Z,99.90
2022-10-14T09:43:13.695Z,99.90
2022-10-14T09:46:05.411Z,99.90
2022-10-14T09:48:32.527Z,99.90
2022-10-14T09:51:03.406Z,99.90
2022-10-14T09:53:42.971Z,99.90
2022-10-14T09:56:11.841Z,99.90
2022-10-14T09:58:51.124Z,99.90
2022-10-14T10:01:22.285Z,99.90
2022-10-14T10:03:51.270Z,99.90
2022-10-14T10:06:21.527Z,99.90
2022-10-14T10:08:58.595Z,99.90
2022-10-14T10:11:41.703Z,99.90
2022-10-14T10:14:33.864Z,99.90
2022-10-14T10:17:08.534Z,99.90
2022-10-14T10:19:37.239Z,99.90
2022-10-14T10:25:13.368Z,99.90
2022-10-14T10:27:42.597Z,99.90
2022-10-14T10:30:33.044Z,99.90
2022-10-14T10:33:24.769Z,99.90
2022-10-14T10:36:05.941Z,99.90
2022-10-14T10:38:37.001Z,99.90
2022-10-14T10:41:31.464Z,99.90
2022-10-14T10:44:06.236Z,99.90
2022-10-14T10:46:56.730Z,99.90
2022-10-14T10:49:45.418Z,99.90
2022-10-14T10:52:52.468Z,99.90
2022-10-14T10:56:08.325Z,99.90
2022-10-14T10:58:56.620Z,99.90
2022-10-14T11:01:41.146Z,99.90
2022-10-14T11:04:35.694Z,99.90
2022-10-14T11:07:42.662Z,99.90
2022-10-14T11:10:41.096Z,99.90
2022-10-14T11:13:17.342Z,99.90
2022-10-14T11:15:58.382Z,99.90
2022-10-14T11:18:29.195Z,99.90
2022-10-14T11:21:22.223Z,99.90
2022-10-14T11:24:04.809Z,99.90
2022-10-14T11:26:59.486Z,99.90
2022-10-14T11:29:49.876Z,99.90
2022-10-14T11:32:30.711Z,99.90
2022-10-14T11:35:17.679Z,99.90
2022-10-14T11:38:16.892Z,99.90
2022-10-14T11:41:23.855Z,99.90
2022-10-14T11:44:11.313Z,99.90
2022-10-14T11:46:42.501Z,99.90
2022-10-14T11:49:22.792Z,99.90
2022-10-14T11:51:57.481Z,99.90
2022-10-14T11:54:35.305Z,99.90
2022-10-14T11:57:08.045Z,99.90
2022-10-14T11:59:38.525Z,99.90
2022-10-14T12:02:34.207Z,99.90
2022-10-14T12:05:29.985Z,99.90
2022-10-14T12:08:16.964Z,99.90
2022-10-14T12:10:47.979Z,99.90
2022-10-14T12:13:18.326Z,99.90
2022-10-14T12:15:50.805Z,99.90
2022-10-14T12:18:19.484Z,99.90
2022-10-14T12:21:06.388Z,99.90
2022-10-14T12:23:39.656Z,99.90
2022-10-14T12:26:25.883Z,99.90
2022-10-14T12:28:54.598Z,99.90
2022-10-14T12:31:39.576Z,99.90
2022-10-14T12:34:14.052Z,99.90
2022-10-14T12:36:44.793Z,99.90
2022-10-14T12:39:19.442Z,99.90
2022-10-14T12:42:11.500Z,99.20
2022-10-14T12:44:56.587Z,99.70
2022-10-14T12:47:29.126Z,99.90
2022-10-14T12:49:59.144Z,99.90
2022-10-14T12:52:32.409Z,99.90
2022-10-14T12:55:05.144Z,99.70
2022-10-14T12:57:37.327Z,99.20
2022-10-14T13:00:27.107Z,99.90
2022-10-14T13:03:00.201Z,99.40
2022-10-14T13:05:32.544Z,98.30
2022-10-14T13:08:20.334Z,97.90
2022-10-14T13:10:50.611Z,98.70
2022-10-14T13:13:38.943Z,98.80
2022-10-14T13:16:08.056Z,98.50
2022-10-14T13:18:40.039Z,98.20
2022-10-14T13:21:09.407Z,99.00
2022-10-14T13:23:41.647Z,98.40
2022-10-14T13:26:36.702Z,98.40
2022-10-14T13:29:23.681Z,98.50
2022-10-14T13:32:22.767Z,98.60
2022-10-14T13:35:00.491Z,98.60
2022-10-14T13:37:54.489Z,98.30
2022-10-14T13:40:27.373Z,98.90
2022-10-14T13:42:57.607Z,99.00
2022-10-14T13:45:48.214Z,99.00
2022-10-14T13:48:24.274Z,98.80
2022-10-14T13:50:58.688Z,98.60
2022-10-14T13:53:33.473Z,98.80
2022-10-14T13:56:00.727Z,99.80
2022-10-14T13:58:27.820Z,99.90
2022-10-14T14:00:58.544Z,99.90
2022-10-14T14:03:29.068Z,99.90
2022-10-14T14:05:57.162Z,99.70
2022-10-14T14:08:40.404Z,99.90
2022-10-14T14:11:16.652Z,99.90
2022-10-14T14:14:06.828Z,99.90
2022-10-14T14:16:38.000Z,99.90
2022-10-14T14:19:10.040Z,99.90
2022-10-14T14:21:37.993Z,99.90
2022-10-14T14:24:16.769Z,99.90
2022-10-14T14:26:54.054Z,99.90
2022-10-14T14:29:27.806Z,99.90
2022-10-14T14:32:12.828Z,99.90
2022-10-14T14:34:44.387Z,99.90
2022-10-14T14:37:43.878Z,99.90
2022-10-14T14:40:32.536Z,99.90
2022-10-14T14:43:03.170Z,99.90
2022-10-14T14:45:36.038Z,99.90
2022-10-14T14:48:06.806Z,99.90
2022-10-14T14:50:39.419Z,99.90
2022-10-14T14:53:12.428Z,99.90
2022-10-14T14:56:04.078Z,99.90
2022-10-14T14:58:35.242Z,99.90
2022-10-14T15:01:02.753Z,99.90
2022-10-14T15:03:34.662Z,99.90
2022-10-14T15:06:04.255Z,99.90
2022-10-14T15:08:36.559Z,99.90
2022-10-14T15:11:04.590Z,99.90
2022-10-14T15:13:32.721Z,99.90
2022-10-14T15:16:00.266Z,99.90
2022-10-14T15:18:30.564Z,99.90
2022-10-14T15:21:13.419Z,99.90
2022-10-14T15:23:42.855Z,99.90
2022-10-14T15:26:34.202Z,99.90
2022-10-14T15:29:08.947Z,99.90
2022-10-14T15:31:40.177Z,99.90
2022-10-14T15:34:18.805Z,99.90
2022-10-14T15:36:48.634Z,99.90
2022-10-14T15:39:21.565Z,99.90
2022-10-14T15:41:50.162Z,99.90
2022-10-14T15:44:29.143Z,99.90
2022-10-14T15:47:18.033Z,99.90
2022-10-14T15:49:46.110Z,99.90
2022-10-14T15:52:16.028Z,99.90
2022-10-14T15:54:45.958Z,99.90
2022-10-14T15:57:16.723Z,99.90
2022-10-14T15:59:47.977Z,99.90
2022-10-14T16:02:15.028Z,99.90
2022-10-14T16:05:00.668Z,99.90
2022-10-14T16:07:29.167Z,99.90
2022-10-14T16:09:56.428Z,99.90
2022-10-14T16:12:23.801Z,99.90
2022-10-14T16:14:51.123Z,99.90
2022-10-14T16:17:19.827Z,99.90
2022-10-14T16:19:49.575Z,99.90
2022-10-14T16:22:17.846Z,99.90
2022-10-14T16:24:46.300Z,99.90
2022-10-14T16:27:14.429Z,99.90
2022-10-14T16:29:41.686Z,99.90
2022-10-14T16:32:10.332Z,99.90
2022-10-14T16:34:39.869Z,99.90
2022-10-14T16:37:09.597Z,99.90
2022-10-14T16:39:40.986Z,99.90
2022-10-14T16:42:10.344Z,99.90
2022-10-14T16:44:41.258Z,99.90
2022-10-14T16:47:17.369Z,99.90
2022-10-14T16:49:48.638Z,99.90
2022-10-14T16:52:18.875Z,99.90
2022-10-14T16:54:50.125Z,99.90
2022-10-14T16:57:20.377Z,99.90
2022-10-14T16:59:47.651Z,99.90
2022-10-14T17:02:20.940Z,99.90
2022-10-14T17:04:49.838Z,99.90
2022-10-14T17:07:22.827Z,99.90
2022-10-14T17:09:55.211Z,99.90
2022-10-14T17:12:22.633Z,99.90
2022-10-14T17:14:50.815Z,99.90
2022-10-14T17:17:19.519Z,99.90
2022-10-14T17:19:56.965Z,99.90
2022-10-14T17:22:25.955Z,99.90
2022-10-14T17:24:55.104Z,99.90
2022-10-14T17:27:27.052Z,99.90
2022-10-14T17:29:59.579Z,99.90
2022-10-14T17:32:28.290Z,99.90
2022-10-14T17:34:56.806Z,99.90
2022-10-14T17:37:24.397Z,99.90
2022-10-14T17:39:53.911Z,99.90
2022-10-14T17:42:21.500Z,99.90
2022-10-14T17:44:50.490Z,99.90
2022-10-14T17:47:19.567Z,99.90
2022-10-14T17:49:47.224Z,99.90
2022-10-14T17:52:14.414Z,99.90
2022-10-14T17:54:41.535Z,99.90
2022-10-14T17:57:08.967Z,99.90
2022-10-14T17:59:36.030Z,99.90
2022-10-14T18:02:03.780Z,99.90
2022-10-14T18:04:32.775Z,99.90
2022-10-14T18:07:00.401Z,99.90
2022-10-14T18:09:28.293Z,99.90
2022-10-14T18:12:13.167Z,99.90
2022-10-14T18:14:41.046Z,99.90
2022-10-14T18:17:11.023Z,99.90
2022-10-14T18:19:40.983Z,99.90
2022-10-14T18:22:08.981Z,99.90
2022-10-14T18:24:38.467Z,99.90
2022-10-14T18:27:15.162Z,99.90
2022-10-14T18:29:43.694Z,99.90
2022-10-14T18:32:11.060Z,99.90
2022-10-14T18:34:42.255Z,99.90
2022-10-14T18:37:10.325Z,99.90
2022-10-14T18:39:38.382Z,99.90
2022-10-14T18:42:06.968Z,99.90
2022-10-14T18:44:34.061Z,99.90
2022-10-14T18:47:01.142Z,99.90
2022-10-14T18:49:28.444Z,99.90
2022-10-14T18:51:55.500Z,99.90
2022-10-14T18:54:24.912Z,99.90
2022-10-14T18:56:52.465Z,99.90
2022-10-14T18:59:23.344Z,99.90
2022-10-14T19:01:53.623Z,99.90
2022-10-14T19:04:24.412Z,99.90
2022-10-14T19:06:51.660Z,99.90
2022-10-14T19:09:21.759Z,99.90
2022-10-14T19:11:51.523Z,99.90
2022-10-14T19:14:18.907Z,99.90
2022-10-14T19:16:49.640Z,99.90
2022-10-14T19:19:19.667Z,99.90
2022-10-14T19:22:03.170Z,99.90
2022-10-14T19:24:31.488Z,99.90
2022-10-14T19:26:58.632Z,99.90
2022-10-14T19:29:25.821Z,99.90
2022-10-14T19:31:54.561Z,99.90
2022-10-14T19:34:25.801Z,99.90
2022-10-14T19:36:58.077Z,99.90
2022-10-14T19:39:31.071Z,99.90
2022-10-14T19:42:00.184Z,99.90
2022-10-14T19:44:27.232Z,99.90
2022-10-14T19:46:55.958Z,99.90
2022-10-14T19:49:24.580Z,99.90
2022-10-14T19:51:51.901Z,99.90
2022-10-14T19:54:19.669Z,99.90
2022-10-14T19:56:46.759Z,99.90
2022-10-14T19:59:14.354Z,99.90
2022-10-14T20:01:41.696Z,99.90
2022-10-14T20:04:09.033Z,99.90
2022-10-14T20:06:38.361Z,99.90
2022-10-14T20:09:06.642Z,99.90
2022-10-14T20:11:34.027Z,99.90
2022-10-14T20:14:01.126Z,99.90
2022-10-14T20:16:28.618Z,99.90
2022-10-14T20:18:56.816Z,99.90
2022-10-14T20:21:24.102Z,99.90
2022-10-14T20:23:51.314Z,99.90
2022-10-14T20:26:21.321Z,99.90
2022-10-14T20:28:50.019Z,99.90
2022-10-14T20:31:20.112Z,99.90
2022-10-14T20:33:47.246Z,99.90
2022-10-14T20:36:17.401Z,99.90
2022-10-14T20:38:45.288Z,99.90
2022-10-14T20:41:16.341Z,99.90
2022-10-14T20:43:44.658Z,99.90
2022-10-14T20:46:13.012Z,99.90
2022-10-14T20:48:42.224Z,99.90
2022-10-14T20:51:13.364Z,99.90
2022-10-14T20:56:10.230Z,99.90
2022-10-14T20:58:38.291Z,99.90
2022-10-14T21:01:11.228Z,99.90
2022-10-14T21:03:42.492Z,99.90
2022-10-14T21:06:14.267Z,99.90
2022-10-14T21:08:42.696Z,99.90
2022-10-14T21:11:15.002Z,99.90
2022-10-14T21:13:45.956Z,99.90
2022-10-14T21:16:25.108Z,99.90
2022-10-14T21:18:57.930Z,99.90
2022-10-14T21:21:29.575Z,99.90
2022-10-14T21:23:57.385Z,99.90
2022-10-14T21:26:25.304Z,99.90
2022-10-14T21:28:52.548Z,99.90
2022-10-14T21:31:20.443Z,99.90
2022-10-14T21:33:48.668Z,99.90
2022-10-14T21:36:17.203Z,99.90
2022-10-14T21:38:44.554Z,99.90
2022-10-14T21:41:12.498Z,99.90
2022-10-14T21:43:41.013Z,99.90
2022-10-14T21:46:12.577Z,99.90
2022-10-14T21:48:40.669Z,99.90
2022-10-14T21:51:11.343Z,99.90
2022-10-14T21:53:40.089Z,99.90
2022-10-14T21:56:08.316Z,99.90
2022-10-14T21:58:36.218Z,99.90
2022-10-14T22:01:07.678Z,99.90
2022-10-14T22:03:35.999Z,99.90
2022-10-14T22:06:06.795Z,99.90
2022-10-14T22:08:37.115Z,99.90
2022-10-14T22:11:05.543Z,99.90
2022-10-14T22:13:34.062Z,99.90
2022-10-14T22:16:01.540Z,99.90
2022-10-14T22:18:28.661Z,99.90
2022-10-14T22:21:06.727Z,99.90
2022-10-14T22:23:34.406Z,99.90
2022-10-14T22:26:02.437Z,99.90
2022-10-14T22:28:30.942Z,99.90
2022-10-14T22:31:14.187Z,99.90
2022-10-14T22:33:42.592Z,99.90
2022-10-14T22:36:19.499Z,99.90
2022-10-14T22:38:51.574Z,99.90
2022-10-14T22:41:20.622Z,99.90
2022-10-14T22:43:50.514Z,99.90
2022-10-14T22:46:20.513Z,99.90
2022-10-14T22:48:49.364Z,99.90
2022-10-14T22:51:19.065Z,99.90
2022-10-14T22:53:47.078Z,99.90
2022-10-14T22:56:16.804Z,99.90
2022-10-14T22:58:43.896Z,99.90
2022-10-14T23:01:13.882Z,99.90
2022-10-14T23:03:41.925Z,99.90
2022-10-14T23:06:12.022Z,99.90
2022-10-14T23:08:40.136Z,99.90
2022-10-14T23:11:07.621Z,99.90
2022-10-14T23:13:35.399Z,99.90
2022-10-14T23:16:05.786Z,99.90
2022-10-14T23:18:36.063Z,99.90
2022-10-14T23:21:13.473Z,99.90
2022-10-14T23:23:41.587Z,99.90
2022-10-14T23:26:10.638Z,99.90
2022-10-14T23:28:38.277Z,99.90
2022-10-14T23:31:12.303Z,99.90
2022-10-14T23:33:40.391Z,99.90
2022-10-14T23:36:10.365Z,99.90
2022-10-14T23:38:37.998Z,99.90
2022-10-14T23:41:06.471Z,99.90
2022-10-14T23:43:33.834Z,99.90
2022-10-14T23:46:01.497Z,99.90
2022-10-14T23:48:28.858Z,99.90
2022-10-14T23:50:56.150Z,99.90
2022-10-14T23:53:23.533Z,99.90
2022-10-14T23:55:50.640Z,99.90
2022-10-14T23:58:17.875Z,99.90
